Time;durP1;ratioP1;P1;durP2;ratioP2;P2;SDS_P1;SDS_P2;PMS_P1;PMS_P2;Temp;Humidity;BMP_temperature;BMP_pressure;BME280_temperature;BME280_humidity;BME280_pressure;Samples;Min_cycle;Max_cycle;Signal;HPM_P1;HPM_P2
2021/12/27 08:13:22;;;;;;;;;;;;;;;6.28;88.58;95673.28;4228943;27;10250;-70
2021/12/27 08:15:24;;;;;;;;;;;;;;;6.30;87.79;95679.97;4212505;28;5635;-69
2021/12/27 08:17:26;;;;;;;;;;;;;;;6.32;87.45;95685.81;4215637;28;5654;-69
2021/12/27 08:19:28;;;;;;;;;;;;;;;6.34;87.51;95683.84;4194211;28;5784;-70
2021/12/27 08:21:31;;;;;;;;;;;;;;;6.40;87.23;95690.91;4212696;28;5630;-70
2021/12/27 08:23:33;;;;;;;;;;;;;;;6.41;87.19;95697.78;4213446;28;5634;-70
2021/12/27 08:25:34;;;;;;;;;;;;;;;6.43;86.89;95695.78;4213077;28;5730;-69
2021/12/27 08:27:38;;;;;;;;;;;;;;;6.46;87.14;95693.78;4213102;28;5750;-70
2021/12/27 08:29:40;;;;;;;;;;;;;;;6.50;87.18;95702.88;4194992;28;5760;-69
2021/12/27 08:31:43;;;;;;;;;;;;;;;6.52;86.80;95700.88;4178834;28;5908;-70
2021/12/27 08:33:45;;;;;;;;;;;;;;;6.56;86.87;95700.28;4213196;28;5850;-69
2021/12/27 08:35:46;;;;;;;;;;;;;;;6.60;86.75;95700.72;4211588;28;5854;-70
2021/12/27 08:37:48;;;;;;;;;;;;;;;6.62;86.29;95701.34;4161556;28;5830;-70
2021/12/27 08:39:49;;;;;;;;;;;;;;;6.64;86.16;95691.44;4204728;28;5925;-70
2021/12/27 08:41:56;;;;;;;;;;;;;;;6.62;86.16;95691.63;4191127;28;5750;-71
2021/12/27 08:44:05;;;;;;;;;;;;;;;6.65;85.62;95690.44;4211985;28;5742;-71
2021/12/27 08:46:07;;;;;;;;;;;;;;;6.63;85.44;95689.81;4211810;28;5735;-70
2021/12/27 08:48:08;;;;;;;;;;;;;;;6.69;85.84;95689.06;4194550;28;5718;-71
2021/12/27 08:50:12;;;;;;;;;;;;;;;6.74;85.54;95696.34;4190121;28;5777;-71
2021/12/27 08:52:14;;;;;;;;;;;;;;;6.76;85.57;95695.13;4208313;28;5742;-70
2021/12/27 08:54:16;;;;;;;;;;;;;;;6.80;85.04;95698.19;4210564;28;5884;-71
2021/12/27 08:56:18;;;;;;;;;;;;;;;6.74;85.48;95697.13;4202213;28;5761;-71
2021/12/27 08:58:20;;;;;;;;;;;;;;;6.83;84.93;95695.97;4192595;28;5761;-71
2021/12/27 09:00:22;;;;;;;;;;;;;;;6.87;85.21;95704.25;4186238;28;5642;-70
2021/12/27 09:02:23;;;;;;;;;;;;;;;6.87;84.26;95702.44;4175574;28;5787;-71
2021/12/27 09:04:25;;;;;;;;;;;;;;;6.88;84.58;95703.25;4205021;28;5881;-70
2021/12/27 09:06:27;;;;;;;;;;;;;;;6.71;83.59;95703.59;4210145;28;5777;-71
2021/12/27 09:08:30;;;;;;;;;;;;;;;6.65;84.63;95699.13;4201573;28;5752;-71
2021/12/27 09:10:32;;;;;;;;;;;;;;;6.76;83.36;95712.69;4205743;28;5815;-70
2021/12/27 09:12:38;;;;;;;;;;;;;;;6.57;84.05;95706.34;4171928;28;5687;-70
2021/12/27 09:14:40;;;;;;;;;;;;;;;6.68;84.27;95708.41;4164077;28;5749;-71
2021/12/27 09:16:43;;;;;;;;;;;;;;;6.78;83.06;95716.75;4153399;23;5856;-71
2021/12/27 09:18:45;;;;;;;;;;;;;;;6.81;83.57;95721.63;4133708;28;5828;-70
2021/12/27 09:20:46;;;;;;;;;;;;;;;6.86;83.58;95719.22;4134395;28;5883;-71
2021/12/27 09:22:50;;;;;;;;;;;;;;;6.83;83.58;95716.19;4133033;28;5986;-71
2021/12/27 09:24:52;;;;;;;;;;;;;;;6.84;83.09;95721.22;4131196;28;5779;-71
2021/12/27 09:26:54;;;;;;;;;;;;;;;6.84;82.81;95723.06;4128562;28;5944;-70
2021/12/27 09:28:57;;;;;;;;;;;;;;;6.87;82.12;95714.78;4133510;28;5907;-71
2021/12/27 09:30:59;;;;;;;;;;;;;;;6.86;82.33;95718.41;4134727;28;5772;-71
2021/12/27 09:33:01;;;;;;;;;;;;;;;6.84;81.43;95717.78;4136873;28;5836;-70
2021/12/27 09:35:04;;;;;;;;;;;;;;;6.67;82.06;95706.78;4138114;28;5867;-71
2021/12/27 09:37:08;;;;;;;;;;;;;;;6.84;82.02;95715.97;4137776;28;5901;-70
2021/12/27 09:39:12;;;;;;;;;;;;;;;6.73;82.61;95716.53;4136999;28;5869;-70
2021/12/27 09:41:14;;;;;;;;;;;;;;;6.87;82.59;95720.03;4138019;28;5787;-71
2021/12/27 09:43:16;;;;;;;;;;;;;;;6.60;82.31;95721.72;4138445;28;5064;-70
2021/12/27 09:45:18;;;;;;;;;;;;;;;6.69;83.15;95729.25;4137903;28;7716;-71
2021/12/27 09:47:20;;;;;;;;;;;;;;;6.69;85.50;95724.00;4137113;28;5826;-70
2021/12/27 09:49:42;;;;;;;;;;;;;;;6.61;89.25;95731.22;4138335;28;5811;-71
2021/12/27 09:51:49;;;;;;;;;;;;;;;6.57;89.86;95727.34;4138029;28;5783;-70
2021/12/27 09:53:52;;;;;;;;;;;;;;;6.46;90.90;95725.28;4138205;28;5847;-70
2021/12/27 09:55:54;;;;;;;;;;;;;;;6.50;91.44;95729.16;4136499;28;5795;-70
2021/12/27 09:57:55;;;;;;;;;;;;;;;6.66;90.81;95720.94;4138034;28;5815;-71
2021/12/27 09:59:57;;;;;;;;;;;;;;;6.63;91.57;95719.50;4136706;28;5836;-71
2021/12/27 10:02:00;;;;;;;;;;;;;;;6.64;91.79;95712.44;4138053;28;6432;-70
2021/12/27 10:04:02;;;;;;;;;;;;;;;6.74;90.63;95714.72;4136285;28;5903;-71
2021/12/27 10:06:12;;;;;;;;;;;;;;;6.84;90.06;95709.91;4137956;28;7769;-71
2021/12/27 10:08:17;;;;;;;;;;;;;;;6.80;90.70;95706.88;4138161;28;5883;-70
2021/12/27 10:10:20;;;;;;;;;;;;;;;6.83;90.78;95706.47;4137553;28;5772;-70
2021/12/27 10:12:23;;;;;;;;;;;;;;;6.87;90.62;95710.31;4136463;28;5855;-71
2021/12/27 10:14:24;;;;;;;;;;;;;;;6.41;93.76;95710.91;4152508;28;5807;-71
2021/12/27 10:16:27;;;;;;;;;;;;;;;6.49;93.39;95701.28;4149579;28;5661;-70
2021/12/27 10:18:29;;;;;;;;;;;;;;;6.32;93.98;95700.75;4170315;28;5673;-70
2021/12/27 10:20:31;;;;;;;;;;;;;;;6.29;94.19;95701.16;4170094;28;5685;-71
2021/12/27 10:22:36;;;;;;;;;;;;;;;6.47;94.15;95690.16;4152439;28;5705;-71
2021/12/27 10:24:39;;;;;;;;;;;;;;;6.41;93.94;95687.28;4151992;28;5668;-70
2021/12/27 10:26:44;;;;;;;;;;;;;;;6.28;94.96;95696.91;4169824;28;6395;-71
2021/12/27 10:28:46;;;;;;;;;;;;;;;6.16;96.01;95688.75;4168909;28;5140;-71
2021/12/27 10:30:47;;;;;;;;;;;;;;;6.04;97.00;95679.81;4170058;28;5741;-71
2021/12/27 10:33:08;;;;;;;;;;;;;;;6.24;95.18;95674.69;4170065;28;5771;-70
2021/12/27 10:35:11;;;;;;;;;;;;;;;6.52;93.67;95672.81;4170199;28;5669;-70
2021/12/27 10:37:32;;;;;;;;;;;;;;;6.55;93.43;95666.34;4169974;28;5665;-70
2021/12/27 10:39:44;;;;;;;;;;;;;;;6.62;93.52;95670.63;4170057;28;5665;-71
2021/12/27 10:41:45;;;;;;;;;;;;;;;6.68;93.15;95672.47;4169899;28;5732;-71
2021/12/27 10:43:50;;;;;;;;;;;;;;;6.73;92.81;95674.50;4169828;28;5653;-70
2021/12/27 10:46:15;;;;;;;;;;;;;;;6.81;92.06;95673.53;4170121;28;5712;-71
2021/12/27 10:48:21;;;;;;;;;;;;;;;6.85;92.06;95678.19;4170179;28;5773;-70
2021/12/27 10:50:26;;;;;;;;;;;;;;;6.85;91.65;95675.56;4171172;28;5650;-70
2021/12/27 10:52:44;;;;;;;;;;;;;;;6.76;91.73;95684.63;4172837;28;5650;-69
2021/12/27 10:54:46;;;;;;;;;;;;;;;6.71;92.00;95673.91;4156711;28;6574;-70
2021/12/27 10:56:51;;;;;;;;;;;;;;;6.66;92.53;95687.59;4157207;28;5796;-70
2021/12/27 10:58:55;;;;;;;;;;;;;;;6.59;93.10;95683.34;4155322;28;5804;-70
2021/12/27 11:01:07;;;;;;;;;;;;;;;6.58;92.72;95693.03;4154765;28;5684;-70
2021/12/27 11:03:24;;;;;;;;;;;;;;;6.46;93.16;95675.41;4153267;28;5668;-70
2021/12/27 11:05:26;;;;;;;;;;;;;;;6.27;93.62;95682.16;4153145;28;5048;-69
2021/12/27 11:07:28;;;;;;;;;;;;;;;6.40;93.15;95677.78;4153076;28;5748;-71
2021/12/27 11:09:31;;;;;;;;;;;;;;;6.41;93.16;95676.78;4153251;28;5791;-70
2021/12/27 11:11:33;;;;;;;;;;;;;;;6.56;92.50;95673.22;4135906;28;5814;-69
2021/12/27 11:13:36;;;;;;;;;;;;;;;6.64;91.89;95676.50;4153179;28;5680;-69
2021/12/27 11:15:40;;;;;;;;;;;;;;;6.68;91.78;95682.16;4153164;28;5788;-70
2021/12/27 11:17:43;;;;;;;;;;;;;;;6.63;91.26;95676.69;4151335;28;5735;-70
2021/12/27 11:19:45;;;;;;;;;;;;;;;6.58;91.48;95676.47;4153201;28;5672;-69
2021/12/27 11:21:49;;;;;;;;;;;;;;;6.53;91.55;95681.50;4135365;28;5813;-69
2021/12/27 11:23:52;;;;;;;;;;;;;;;6.46;92.11;95678.84;4135341;28;5700;-69
2021/12/27 11:26:11;;;;;;;;;;;;;;;6.59;91.54;95678.09;4153167;28;6141;-69
2021/12/27 11:28:35;;;;;;;;;;;;;;;6.65;91.11;95679.91;4153864;28;5668;-69
2021/12/27 11:30:37;;;;;;;;;;;;;;;6.61;90.98;95676.09;4153692;28;5668;-70
2021/12/27 11:33:06;;;;;;;;;;;;;;;6.64;91.06;95680.94;4153451;28;5672;-69
2021/12/27 11:35:12;;;;;;;;;;;;;;;6.63;90.63;95681.94;4152850;28;5684;-69
2021/12/27 11:37:13;;;;;;;;;;;;;;;6.58;90.77;95682.53;4152498;28;5676;-70
2021/12/27 11:39:29;;;;;;;;;;;;;;;6.54;90.79;95685.72;4152771;28;5668;-69
2021/12/27 11:41:34;;;;;;;;;;;;;;;6.54;91.19;95678.66;4151033;28;5723;-69
2021/12/27 11:43:53;;;;;;;;;;;;;;;6.60;90.59;95684.97;4152637;28;5677;-70
2021/12/27 11:45:55;;;;;;;;;;;;;;;6.62;90.31;95688.19;4135268;28;5807;-69
2021/12/27 11:48:18;;;;;;;;;;;;;;;6.65;90.22;95682.56;4136003;28;5799;-71
2021/12/27 11:50:20;;;;;;;;;;;;;;;6.65;89.77;95693.88;4151975;28;5812;-70
2021/12/27 11:52:23;;;;;;;;;;;;;;;6.57;89.47;95685.34;4169495;28;5649;-69
2021/12/27 11:54:29;;;;;;;;;;;;;;;6.57;89.83;95686.16;4167489;28;5669;-70
2021/12/27 11:56:37;;;;;;;;;;;;;;;6.57;89.90;95677.47;4185719;28;5642;-70
2021/12/27 11:58:42;;;;;;;;;;;;;;;6.56;89.84;95673.22;4185534;28;5639;-70
2021/12/27 12:00:44;;;;;;;;;;;;;;;6.54;90.21;95670.78;4168037;28;5665;-70
2021/12/27 12:02:51;;;;;;;;;;;;;;;6.50;90.58;95668.75;4168263;28;5661;-69
2021/12/27 12:04:58;;;;;;;;;;;;;;;6.55;91.39;95682.09;4185298;28;5675;-70
2021/12/27 12:07:01;;;;;;;;;;;;;;;6.61;91.34;95674.25;4167593;28;5649;-70
2021/12/27 12:09:29;;;;;;;;;;;;;;;6.60;92.07;95679.72;4185192;28;5701;-70
2021/12/27 12:11:32;;;;;;;;;;;;;;;6.75;91.31;95674.31;4181584;28;5643;-70
2021/12/27 12:13:44;;;;;;;;;;;;;;;6.81;91.46;95674.34;4167782;28;5757;-71
2021/12/27 12:16:15;;;;;;;;;;;;;;;6.76;92.15;95674.09;4184785;28;5646;-70
2021/12/27 12:18:17;;;;;;;;;;;;;;;6.87;91.53;95668.28;4185514;28;5662;-70
2021/12/27 12:20:35;;;;;;;;;;;;;;;6.87;91.68;95667.47;4185183;28;5646;-70
2021/12/27 12:22:40;;;;;;;;;;;;;;;6.79;92.30;95663.19;4185092;28;5686;-70
2021/12/27 12:24:42;;;;;;;;;;;;;;;6.82;92.47;95677.78;4185187;28;5188;-70
2021/12/27 12:27:00;;;;;;;;;;;;;;;6.69;93.09;95681.16;4184245;28;7636;-70
2021/12/27 12:29:02;;;;;;;;;;;;;;;6.75;93.12;95677.75;4185698;28;5643;-70
2021/12/27 12:31:03;;;;;;;;;;;;;;;6.86;92.53;95669.31;4185373;28;5643;-70
2021/12/27 12:33:18;;;;;;;;;;;;;;;6.92;92.30;95675.59;4185244;28;5671;-70
2021/12/27 12:35:33;;;;;;;;;;;;;;;7.00;91.51;95685.91;4185403;28;5635;-70
2021/12/27 12:37:35;;;;;;;;;;;;;;;6.97;91.61;95678.44;4167025;28;5788;-70
2021/12/27 12:39:57;;;;;;;;;;;;;;;6.93;91.65;95683.28;4167408;28;5661;-70
2021/12/27 12:42:08;;;;;;;;;;;;;;;6.90;92.27;95683.66;4185138;28;5654;-70
2021/12/27 12:44:10;;;;;;;;;;;;;;;6.97;92.04;95692.38;4184922;28;5654;-70
2021/12/27 12:46:35;;;;;;;;;;;;;;;6.90;92.24;95693.34;4183890;28;6299;-71
2021/12/27 12:48:37;;;;;;;;;;;;;;;6.82;92.65;95693.53;4185072;28;6299;-71
2021/12/27 12:50:38;;;;;;;;;;;;;;;6.91;92.11;95687.13;4162955;28;5653;-70
2021/12/27 12:52:55;;;;;;;;;;;;;;;6.74;92.78;95693.72;4166326;28;5833;-69
2021/12/27 12:54:59;;;;;;;;;;;;;;;6.61;94.02;95686.59;4157097;28;5888;-70
2021/12/27 12:57:03;;;;;;;;;;;;;;;6.65;94.54;95693.88;4149153;28;5811;-69
2021/12/27 12:59:05;;;;;;;;;;;;;;;6.62;94.83;95693.44;4150436;28;5795;-70
2021/12/27 13:01:09;;;;;;;;;;;;;;;6.65;94.66;95688.59;4168455;28;5748;-70
2021/12/27 13:03:15;;;;;;;;;;;;;;;6.81;93.65;95695.38;4155417;28;5759;-69
2021/12/27 13:05:21;;;;;;;;;;;;;;;6.87;93.06;95686.69;4151990;28;5786;-70
2021/12/27 13:07:35;;;;;;;;;;;;;;;6.89;93.30;95684.66;4152044;28;5962;-69
2021/12/27 13:09:43;;;;;;;;;;;;;;;6.70;95.19;95685.41;4134111;28;5906;-69
2021/12/27 13:11:53;;;;;;;;;;;;;;;6.80;95.21;95685.06;4151929;28;5799;-69
2021/12/27 13:14:01;;;;;;;;;;;;;;;6.92;94.12;95689.53;4152752;28;5770;-69
2021/12/27 13:16:05;;;;;;;;;;;;;;;6.86;94.96;95694.75;4167901;28;5899;-69
2021/12/27 13:18:07;;;;;;;;;;;;;;;6.87;95.37;95697.19;4150593;28;5794;-69
2021/12/27 13:20:16;;;;;;;;;;;;;;;6.98;95.08;95698.44;4168307;28;5898;-69
2021/12/27 13:22:36;;;;;;;;;;;;;;;6.83;96.70;95698.59;4164413;28;6191;-69
2021/12/27 13:24:51;;;;;;;;;;;;;;;6.79;96.95;95699.16;4164886;28;5760;-69
2021/12/27 13:26:53;;;;;;;;;;;;;;;6.81;97.38;95699.81;4164242;28;5729;-70
2021/12/27 13:28:55;;;;;;;;;;;;;;;6.97;96.42;95707.34;4166118;28;6721;-70
2021/12/27 13:31:15;;;;;;;;;;;;;;;6.92;96.74;95700.06;4156062;28;5788;-69
2021/12/27 13:33:22;;;;;;;;;;;;;;;7.05;95.56;95701.09;4147650;28;5712;-69
2021/12/27 13:35:24;;;;;;;;;;;;;;;7.13;95.48;95703.53;4166612;28;5788;-69
2021/12/27 13:37:27;;;;;;;;;;;;;;;6.77;98.05;95702.00;4134068;28;5806;-69
2021/12/27 13:39:29;;;;;;;;;;;;;;;6.66;98.66;95692.03;4169989;28;6569;-69
2021/12/27 13:41:33;;;;;;;;;;;;;;;6.70;99.01;95701.19;4165843;28;5767;-69
2021/12/27 13:43:51;;;;;;;;;;;;;;;6.85;97.90;95696.59;4165348;28;5673;-69
2021/12/27 13:45:53;;;;;;;;;;;;;;;6.93;97.17;95691.16;4149462;28;5838;-69
2021/12/27 13:47:55;;;;;;;;;;;;;;;6.98;96.79;95696.63;4166680;28;6539;-69
2021/12/27 13:49:59;;;;;;;;;;;;;;;6.95;96.72;95693.59;4148810;28;6008;-69
2021/12/27 13:52:04;;;;;;;;;;;;;;;7.07;96.07;95691.19;4165943;28;5756;-69
2021/12/27 13:54:13;;;;;;;;;;;;;;;7.13;96.13;95693.03;4166589;28;5645;-69
2021/12/27 13:56:18;;;;;;;;;;;;;;;7.18;95.75;95693.25;4149783;28;5193;-69
2021/12/27 13:58:24;;;;;;;;;;;;;;;7.19;95.75;95694.88;4169155;28;5673;-69
2021/12/27 14:00:31;;;;;;;;;;;;;;;7.16;95.97;95697.91;4152696;28;6006;-70
2021/12/27 14:02:45;;;;;;;;;;;;;;;7.25;95.50;95700.16;4163234;28;5713;-70
2021/12/27 14:05:01;;;;;;;;;;;;;;;7.27;95.65;95699.94;4163639;28;6789;-71
2021/12/27 14:07:07;;;;;;;;;;;;;;;7.25;95.83;95700.16;4149106;28;5700;-72
2021/12/27 14:09:12;;;;;;;;;;;;;;;7.37;95.05;95700.38;4163536;28;5918;-72
2021/12/27 14:11:14;;;;;;;;;;;;;;;7.32;95.53;95694.09;4154403;28;5759;-72
2021/12/27 14:13:16;;;;;;;;;;;;;;;7.06;97.32;95710.59;4169359;28;5124;-72
2021/12/27 14:15:25;;;;;;;;;;;;;;;6.87;98.52;95714.78;4118788;28;5238;-69
2021/12/27 14:17:30;;;;;;;;;;;;;;;7.00;96.90;95712.19;4164972;28;7787;-71
2021/12/27 14:19:32;;;;;;;;;;;;;;;7.10;96.18;95715.25;4155689;28;5794;-69
2021/12/27 14:21:51;;;;;;;;;;;;;;;7.24;94.69;95718.72;4163761;28;5848;-68
2021/12/27 14:24:07;;;;;;;;;;;;;;;7.32;94.45;95721.19;4148550;28;5826;-69
2021/12/27 14:26:15;;;;;;;;;;;;;;;7.24;93.30;95723.97;4145602;28;5845;-72
2021/12/27 14:28:22;;;;;;;;;;;;;;;7.28;93.58;95719.97;4157303;28;5763;-72
2021/12/27 14:30:29;;;;;;;;;;;;;;;7.39;93.10;95737.78;4164089;28;5197;-72
2021/12/27 14:32:31;;;;;;;;;;;;;;;7.30;93.33;95741.59;4165692;28;5808;-71
2021/12/27 14:34:47;;;;;;;;;;;;;;;7.39;93.07;95743.06;4164228;28;5760;-71
2021/12/27 14:36:48;;;;;;;;;;;;;;;7.41;93.10;95748.09;4165228;28;5769;-71
2021/12/27 14:38:50;;;;;;;;;;;;;;;6.85;94.39;95746.50;4165993;28;5768;-71
2021/12/27 14:40:53;;;;;;;;;;;;;;;6.92;94.11;95744.72;4164444;28;5871;-70
2021/12/27 14:42:55;;;;;;;;;;;;;;;6.91;94.55;95740.47;4164819;28;5776;-71
2021/12/27 14:44:58;;;;;;;;;;;;;;;6.71;95.43;95742.19;4165606;28;5748;-72
2021/12/27 14:47:00;;;;;;;;;;;;;;;6.51;96.77;95746.53;4166742;28;5755;-71
2021/12/27 14:49:02;;;;;;;;;;;;;;;6.69;95.01;95749.47;4164552;28;5776;-71
2021/12/27 14:51:04;;;;;;;;;;;;;;;6.72;95.60;95751.69;4165897;28;5946;-71
2021/12/27 14:53:07;;;;;;;;;;;;;;;6.70;95.25;95749.25;4178713;28;5753;-72
2021/12/27 14:55:10;;;;;;;;;;;;;;;6.80;95.33;95753.34;4166210;28;5760;-72
2021/12/27 14:57:13;;;;;;;;;;;;;;;6.85;94.87;95759.63;4160305;28;5804;-71
2021/12/27 14:59:14;;;;;;;;;;;;;;;6.93;94.74;95762.09;4162771;28;5771;-70
2021/12/27 15:01:17;;;;;;;;;;;;;;;7.01;94.29;95769.00;4161114;28;6336;-72
2021/12/27 15:03:19;;;;;;;;;;;;;;;7.14;93.66;95770.88;4156726;28;5772;-69
2021/12/27 15:05:22;;;;;;;;;;;;;;;7.01;94.50;95776.88;4165594;28;5772;-72
2021/12/27 15:07:23;;;;;;;;;;;;;;;6.96;93.99;95780.09;4163367;28;5164;-71
2021/12/27 15:09:27;;;;;;;;;;;;;;;7.06;93.92;95777.13;4173211;28;5930;-69
2021/12/27 15:11:28;;;;;;;;;;;;;;;7.11;93.62;95777.31;4162369;28;5860;-71
2021/12/27 15:13:30;;;;;;;;;;;;;;;7.16;93.16;95782.00;4163107;28;5796;-71
2021/12/27 15:15:31;;;;;;;;;;;;;;;7.21;93.12;95785.66;4162527;28;5760;-69
2021/12/27 15:17:33;;;;;;;;;;;;;;;7.19;93.30;95789.50;4180508;28;5812;-69
2021/12/27 15:19:35;;;;;;;;;;;;;;;7.26;93.00;95798.22;4149131;28;5772;-71
2021/12/27 15:21:37;;;;;;;;;;;;;;;7.23;93.10;95798.59;4180637;28;5749;-71
2021/12/27 15:23:38;;;;;;;;;;;;;;;7.28;92.73;95799.66;4166931;28;5820;-71
2021/12/27 15:25:40;;;;;;;;;;;;;;;7.32;92.49;95809.75;4165902;28;6650;-70
2021/12/27 15:27:44;;;;;;;;;;;;;;;7.20;93.34;95809.50;4174962;28;5103;-70
2021/12/27 15:29:47;;;;;;;;;;;;;;;7.05;94.00;95814.09;4163730;28;5763;-69
2021/12/27 15:31:49;;;;;;;;;;;;;;;7.10;94.03;95817.75;4162563;28;5768;-70
2021/12/27 15:33:51;;;;;;;;;;;;;;;6.93;94.97;95814.66;4162012;28;6480;-70
2021/12/27 15:35:54;;;;;;;;;;;;;;;7.08;94.41;95824.22;4162635;28;5958;-69
2021/12/27 15:37:56;;;;;;;;;;;;;;;7.18;94.06;95819.41;4164054;28;5899;-68
2021/12/27 15:39:58;;;;;;;;;;;;;;;7.27;93.26;95824.31;4164234;28;5857;-70
2021/12/27 15:42:00;;;;;;;;;;;;;;;7.18;93.47;95829.94;4162508;28;5760;-69
2021/12/27 15:44:01;;;;;;;;;;;;;;;7.17;93.40;95833.56;4164228;28;5873;-69
2021/12/27 15:46:04;;;;;;;;;;;;;;;7.05;94.05;95835.94;4165571;28;5791;-70
2021/12/27 15:48:08;;;;;;;;;;;;;;;6.89;94.82;95837.03;4144006;28;5807;-70
2021/12/27 15:50:11;;;;;;;;;;;;;;;6.81;95.73;95833.78;4160856;28;6526;-68
2021/12/27 15:52:12;;;;;;;;;;;;;;;6.76;96.35;95844.03;4165583;28;5926;-71
2021/12/27 15:54:15;;;;;;;;;;;;;;;6.83;95.80;95842.28;4161448;28;5776;-71
2021/12/27 15:56:17;;;;;;;;;;;;;;;6.84;95.49;95839.44;4161226;28;5763;-73
2021/12/27 15:58:20;;;;;;;;;;;;;;;6.97;94.93;95847.41;4163466;28;5768;-72
2021/12/27 16:00:24;;;;;;;;;;;;;;;6.87;95.23;95846.13;4163941;28;5744;-72
2021/12/27 16:02:27;;;;;;;;;;;;;;;6.95;94.36;95851.25;4163700;28;5872;-70
2021/12/27 16:04:29;;;;;;;;;;;;;;;6.81;94.09;95847.72;4162935;28;5760;-70
2021/12/27 16:06:31;;;;;;;;;;;;;;;6.79;94.72;95848.91;4166907;28;5737;-70
2021/12/27 16:08:33;;;;;;;;;;;;;;;6.89;94.51;95860.69;4164796;28;5880;-69
2021/12/27 16:10:36;;;;;;;;;;;;;;;6.91;93.45;95853.44;4154768;28;5772;-71
2021/12/27 16:12:38;;;;;;;;;;;;;;;6.84;93.82;95863.09;4163315;28;6543;-70
2021/12/27 16:14:39;;;;;;;;;;;;;;;6.87;93.52;95870.59;4163395;28;5767;-69
2021/12/27 16:16:42;;;;;;;;;;;;;;;6.89;93.26;95873.81;4163165;28;6016;-70
2021/12/27 16:18:44;;;;;;;;;;;;;;;7.09;92.78;95873.97;4164834;28;5810;-70
2021/12/27 16:20:46;;;;;;;;;;;;;;;7.18;92.33;95877.25;4163801;28;6365;-69
2021/12/27 16:22:48;;;;;;;;;;;;;;;7.22;91.92;95883.72;4164623;28;5760;-70
2021/12/27 16:24:50;;;;;;;;;;;;;;;7.00;92.26;95888.25;4145573;28;5683;-69
2021/12/27 16:26:52;;;;;;;;;;;;;;;6.77;93.26;95892.94;4167452;28;5749;-70
2021/12/27 16:28:54;;;;;;;;;;;;;;;6.78;93.71;95903.25;4177341;28;5840;-69
2021/12/27 16:30:56;;;;;;;;;;;;;;;6.74;94.25;95906.47;4165747;28;5756;-76
2021/12/27 16:32:58;;;;;;;;;;;;;;;6.85;93.42;95909.38;4170881;28;5752;-77
2021/12/27 16:35:01;;;;;;;;;;;;;;;7.02;92.85;95904.63;4167737;28;5877;-76
2021/12/27 16:37:04;;;;;;;;;;;;;;;7.08;92.37;95913.56;4167004;28;5871;-77
2021/12/27 16:39:07;;;;;;;;;;;;;;;6.78;93.03;95923.47;4167141;28;5756;-77
2021/12/27 16:41:11;;;;;;;;;;;;;;;6.88;92.75;95919.50;4142321;28;5668;-77
2021/12/27 16:43:13;;;;;;;;;;;;;;;6.83;93.61;95924.53;4139710;28;5790;-76
2021/12/27 16:45:28;;;;;;;;;;;;;;;7.11;92.58;95923.69;4166547;28;5760;-79
2021/12/27 16:47:30;;;;;;;;;;;;;;;7.23;92.02;95936.09;4138221;28;5895;-78
2021/12/27 16:49:33;;;;;;;;;;;;;;;7.21;92.23;95929.44;4164971;28;5756;-79
2021/12/27 16:51:36;;;;;;;;;;;;;;;7.23;92.04;95930.84;4164307;28;5834;-72
2021/12/27 16:53:38;;;;;;;;;;;;;;;7.27;92.28;95934.75;4163280;28;5759;-71
2021/12/27 16:55:42;;;;;;;;;;;;;;;7.30;91.87;95944.84;4148633;28;5673;-69
2021/12/27 16:57:47;;;;;;;;;;;;;;;7.34;92.10;95942.66;4163709;28;6042;-70
2021/12/27 16:59:50;;;;;;;;;;;;;;;7.39;91.47;95936.81;4145394;28;6837;-70
2021/12/27 17:01:53;;;;;;;;;;;;;;;7.40;91.67;95946.34;4165241;28;5768;-70
2021/12/27 17:03:56;;;;;;;;;;;;;;;7.35;91.50;95946.91;4148714;28;5696;-70
2021/12/27 17:05:58;;;;;;;;;;;;;;;7.40;91.39;95952.41;4168354;28;5809;-71
2021/12/27 17:08:00;;;;;;;;;;;;;;;7.36;91.58;95948.53;4166343;28;5748;-70
2021/12/27 17:10:05;;;;;;;;;;;;;;;7.39;91.56;95948.16;4164100;28;5756;-70
2021/12/27 17:12:11;;;;;;;;;;;;;;;7.31;91.82;95950.94;4152753;28;5876;-70
2021/12/27 17:14:13;;;;;;;;;;;;;;;7.00;93.21;95946.88;4164785;28;5832;-71
2021/12/27 17:16:17;;;;;;;;;;;;;;;6.95;94.01;95951.91;4155543;28;5831;-69
2021/12/27 17:18:19;;;;;;;;;;;;;;;7.15;92.34;95952.06;4129725;28;5810;-70
2021/12/27 17:20:21;;;;;;;;;;;;;;;7.09;93.17;95952.00;4163240;28;5757;-70
2021/12/27 17:22:27;;;;;;;;;;;;;;;7.14;92.83;95954.88;4168678;28;5738;-70
2021/12/27 17:24:29;;;;;;;;;;;;;;;6.90;94.14;95962.16;4150380;28;5759;-69
2021/12/27 17:26:31;;;;;;;;;;;;;;;7.07;93.07;95959.25;4150601;28;5692;-68
2021/12/27 17:28:35;;;;;;;;;;;;;;;7.22;92.58;95967.84;4141888;28;5806;-68
2021/12/27 17:30:41;;;;;;;;;;;;;;;7.37;91.89;95965.94;4162456;28;6550;-71
2021/12/27 17:32:44;;;;;;;;;;;;;;;7.41;91.55;95982.13;4164282;28;5763;-70
2021/12/27 17:34:46;;;;;;;;;;;;;;;7.43;91.68;95983.56;4164605;28;5569;-67
2021/12/27 17:36:51;;;;;;;;;;;;;;;7.43;91.40;95999.34;4152314;28;7735;-66
2021/12/27 17:38:53;;;;;;;;;;;;;;;7.34;91.88;95997.88;4145956;28;5807;-66
2021/12/27 17:40:55;;;;;;;;;;;;;;;7.28;91.51;95999.44;4165249;28;5808;-66
2021/12/27 17:42:57;;;;;;;;;;;;;;;6.81;94.19;95984.34;4134107;28;5935;-66
2021/12/27 17:45:00;;;;;;;;;;;;;;;6.84;94.43;95970.00;4130184;28;5826;-66
2021/12/27 17:47:04;;;;;;;;;;;;;;;7.08;93.49;95976.66;4151081;28;5787;-66
2021/12/27 17:49:07;;;;;;;;;;;;;;;7.11;93.79;95984.97;4130392;28;5837;-66
2021/12/27 17:51:09;;;;;;;;;;;;;;;7.26;92.89;95988.31;4145430;28;5880;-66
2021/12/27 17:53:13;;;;;;;;;;;;;;;7.35;92.30;95988.97;4149177;28;5123;-66
2021/12/27 17:55:18;;;;;;;;;;;;;;;7.15;93.42;95993.28;4158162;28;5777;-67
2021/12/27 17:57:21;;;;;;;;;;;;;;;6.99;94.26;95981.22;4148117;28;5790;-66
2021/12/27 17:59:28;;;;;;;;;;;;;;;6.89;95.07;95978.94;4146021;28;7127;-67
2021/12/27 18:01:32;;;;;;;;;;;;;;;7.06;94.45;95984.72;4156577;28;5864;-67
2021/12/27 18:03:35;;;;;;;;;;;;;;;7.26;93.14;95983.06;4149107;28;6532;-66
2021/12/27 18:05:38;;;;;;;;;;;;;;;7.36;92.76;95974.00;4158939;28;5778;-66
2021/12/27 18:07:42;;;;;;;;;;;;;;;7.43;92.51;95998.53;4145725;28;5708;-66
2021/12/27 18:09:47;;;;;;;;;;;;;;;7.43;92.00;95983.56;4161799;28;5919;-71
2021/12/27 18:11:50;;;;;;;;;;;;;;;7.40;92.40;95996.28;4147192;28;5790;-69
2021/12/27 18:13:53;;;;;;;;;;;;;;;7.07;93.12;95990.81;4162486;28;5783;-68
2021/12/27 18:15:56;;;;;;;;;;;;;;;7.13;93.32;95990.84;4163224;28;5836;-69
2021/12/27 18:17:59;;;;;;;;;;;;;;;7.04;94.07;95981.50;4160230;28;6935;-68
2021/12/27 18:20:04;;;;;;;;;;;;;;;7.07;93.64;95983.72;4165823;28;5673;-69
2021/12/27 18:22:07;;;;;;;;;;;;;;;7.20;93.21;95981.19;4159081;28;5831;-70
2021/12/27 18:24:11;;;;;;;;;;;;;;;7.22;93.20;95978.38;4158345;28;5740;-70
2021/12/27 18:26:12;;;;;;;;;;;;;;;7.27;93.04;95987.31;4144303;28;5917;-70
2021/12/27 18:28:15;;;;;;;;;;;;;;;7.23;93.49;95998.38;4164948;28;5764;-71
2021/12/27 18:30:19;;;;;;;;;;;;;;;7.43;92.52;96001.97;4144937;28;5866;-71
2021/12/27 18:32:20;;;;;;;;;;;;;;;7.47;92.08;96003.19;4162120;28;5881;-72
2021/12/27 18:34:23;;;;;;;;;;;;;;;7.49;91.95;96001.22;4163924;28;5752;-70
2021/12/27 18:36:26;;;;;;;;;;;;;;;7.53;91.81;96010.34;4159077;28;5712;-68
2021/12/27 18:38:28;;;;;;;;;;;;;;;7.54;91.59;95998.81;4157069;28;5912;-67
2021/12/27 18:40:31;;;;;;;;;;;;;;;7.29;92.75;95990.56;4142435;28;5840;-70
2021/12/27 18:42:33;;;;;;;;;;;;;;;7.25;92.75;95993.78;4156268;28;5752;-71
2021/12/27 18:44:34;;;;;;;;;;;;;;;7.49;91.95;96003.84;4162540;28;5872;-73
2021/12/27 18:46:36;;;;;;;;;;;;;;;7.58;91.57;96007.94;4145441;28;5779;-74
2021/12/27 18:48:37;;;;;;;;;;;;;;;7.51;91.75;96019.44;4164341;28;5828;-73
2021/12/27 18:50:39;;;;;;;;;;;;;;;7.40;92.20;96012.88;4148562;28;5707;-71
2021/12/27 18:52:41;;;;;;;;;;;;;;;7.35;92.38;96002.09;4157655;28;5839;-69
2021/12/27 18:54:43;;;;;;;;;;;;;;;7.30;92.36;96004.53;4163000;28;5742;-72
2021/12/27 18:56:47;;;;;;;;;;;;;;;7.28;92.66;95999.44;4166392;28;5799;-74
2021/12/27 18:58:49;;;;;;;;;;;;;;;7.29;92.38;95997.63;4163326;28;5895;-74
2021/12/27 19:00:57;;;;;;;;;;;;;;;6.89;94.24;95989.44;4163286;28;5784;-72
2021/12/27 19:03:01;;;;;;;;;;;;;;;7.00;93.84;95985.47;4161631;28;5764;-74
2021/12/27 19:05:06;;;;;;;;;;;;;;;7.23;92.75;95982.63;4163662;28;5901;-73
2021/12/27 19:07:08;;;;;;;;;;;;;;;7.29;91.89;95982.69;4159472;28;5768;-73
2021/12/27 19:09:10;;;;;;;;;;;;;;;7.30;91.65;95978.22;4166250;28;5763;-74
2021/12/27 19:11:13;;;;;;;;;;;;;;;7.35;91.16;95975.00;4162525;28;5852;-68
2021/12/27 19:13:15;;;;;;;;;;;;;;;7.13;91.26;95980.31;4157810;28;5767;-71
2021/12/27 19:15:21;;;;;;;;;;;;;;;7.03;90.71;95979.06;4154489;28;5764;-69
2021/12/27 19:17:23;;;;;;;;;;;;;;;7.12;89.89;95975.25;4162630;28;5796;-69
2021/12/27 19:19:26;;;;;;;;;;;;;;;7.11;89.66;95973.63;4146796;28;5140;-68